Time;durP1;ratioP1;P1;durP2;ratioP2;P2;SDS_P1;SDS_P2;PMS_P1;PMS_P2;Temp;Humidity;BMP_temperature;BMP_pressure;BME280_temperature;BME280_humidity;BME280_pressure;Samples;Min_cycle;Max_cycle;Signal;HPM_P1;HPM_P2
2021/11/30 00:00:03;;;;;;;8.13;4.77;;;3.50;71.90;;;;;;4997131;28;20038;-67
2021/11/30 00:02:29;;;;;;;9.17;4.70;;;3.40;72.00;;;;;;4997364;28;20114;-68
2021/11/30 00:04:55;;;;;;;11.10;5.20;;;3.40;72.00;;;;;;4997139;28;20077;-67
2021/11/30 00:07:21;;;;;;;11.13;6.03;;;3.40;71.90;;;;;;4996974;28;20023;-67
2021/11/30 00:12:18;;;;;;;10.47;7.00;;;3.30;72.60;;;;;;4996983;28;20038;-67
2021/11/30 00:14:47;;;;;;;11.63;6.50;;;3.20;72.70;;;;;;4996766;28;20026;-67
2021/11/30 00:17:13;;;;;;;13.13;7.33;;;3.20;72.70;;;;;;4997235;28;20109;-67
2021/11/30 00:19:40;;;;;;;14.07;8.03;;;3.10;72.60;;;;;;4996684;28;20475;-67
2021/11/30 00:22:09;;;;;;;12.57;6.37;;;3.10;73.10;;;;;;4996949;28;20498;-67
2021/11/30 00:24:35;;;;;;;12.30;6.87;;;3.10;73.40;;;;;;4996844;28;20489;-67
2021/11/30 00:27:01;;;;;;;12.83;8.10;;;3.00;73.00;;;;;;4996583;28;20037;-67
2021/11/30 00:29:28;;;;;;;15.83;10.10;;;3.00;73.30;;;;;;4996386;28;20487;-68
2021/11/30 00:31:54;;;;;;;14.03;8.40;;;3.00;73.60;;;;;;4996277;28;20388;-68
2021/11/30 00:34:20;;;;;;;17.27;9.27;;;2.90;73.40;;;;;;4995593;28;20386;-67
2021/11/30 00:36:47;;;;;;;18.30;10.37;;;3.00;73.60;;;;;;4995763;28;20034;-67
2021/11/30 00:39:13;;;;;;;23.77;14.13;;;3.00;73.40;;;;;;4995268;28;20094;-67
2021/11/30 00:41:44;;;;;;;23.63;12.50;;;3.00;73.60;;;;;;4996256;28;20169;-67
2021/11/30 00:44:10;;;;;;;26.27;13.87;;;2.90;73.90;;;;;;4996513;28;20053;-67
2021/11/30 00:46:39;;;;;;;26.67;14.47;;;2.90;73.90;;;;;;4996554;28;20483;-67
2021/11/30 00:49:06;;;;;;;23.83;13.87;;;2.90;74.00;;;;;;4996660;28;20026;-67
2021/11/30 00:51:36;;;;;;;26.73;14.40;;;2.80;74.30;;;;;;4996430;28;20034;-67
2021/11/30 00:54:03;;;;;;;23.20;13.33;;;2.70;74.50;;;;;;4996159;28;20029;-67
2021/11/30 00:56:28;;;;;;;27.03;13.67;;;2.70;74.70;;;;;;4996315;28;20022;-67
2021/11/30 00:58:55;;;;;;;22.93;13.00;;;2.70;75.20;;;;;;4996262;28;20034;-68
2021/11/30 01:01:21;;;;;;;18.97;12.07;;;2.70;75.10;;;;;;4995969;28;20061;-67
2021/11/30 01:03:47;;;;;;;20.50;11.63;;;2.70;75.10;;;;;;4995839;28;20041;-67
2021/11/30 01:06:13;;;;;;;17.23;9.00;;;2.70;75.20;;;;;;4995269;28;20455;-67
2021/11/30 01:08:39;;;;;;;16.43;9.30;;;2.70;75.10;;;;;;4996027;28;20440;-67
2021/11/30 01:11:05;;;;;;;20.50;11.37;;;2.80;75.00;;;;;;4995873;28;20045;-67
2021/11/30 01:13:33;;;;;;;17.77;10.97;;;2.70;74.40;;;;;;4996082;28;20050;-67
2021/11/30 01:16:00;;;;;;;21.57;11.17;;;2.70;74.60;;;;;;4996095;28;20058;-67
2021/11/30 01:18:26;;;;;;;19.23;11.67;;;2.70;75.00;;;;;;4996066;28;20430;-67
2021/11/30 01:20:52;;;;;;;19.43;11.13;;;2.70;75.00;;;;;;4995893;28;20110;-67
2021/11/30 01:23:19;;;;;;;17.20;11.80;;;2.60;75.20;;;;;;4995724;28;20546;-67
2021/11/30 01:25:45;;;;;;;18.20;12.03;;;2.60;75.50;;;;;;4995891;28;20033;-67
2021/11/30 01:28:11;;;;;;;22.83;11.50;;;2.60;75.30;;;;;;4995832;28;20080;-67
2021/11/30 01:30:37;;;;;;;16.20;10.83;;;2.60;75.30;;;;;;4995827;28;20038;-67
2021/11/30 01:33:07;;;;;;;13.60;9.27;;;2.60;75.30;;;;;;4995450;28;20026;-67
2021/11/30 01:35:34;;;;;;;14.20;8.80;;;2.50;75.30;;;;;;4995778;28;20025;-67
2021/11/30 01:38:00;;;;;;;12.23;7.47;;;2.50;75.40;;;;;;4995542;28;20058;-67
2021/11/30 01:40:28;;;;;;;10.37;6.87;;;2.50;74.90;;;;;;4995521;28;20037;-67
2021/11/30 01:42:57;;;;;;;10.60;7.13;;;2.50;74.80;;;;;;4995519;28;20361;-67
2021/11/30 01:45:31;;;;;;;10.53;6.73;;;2.50;74.90;;;;;;4995260;28;20022;-67
2021/11/30 01:50:28;;;;;;;9.30;5.20;;;2.50;74.90;;;;;;4995310;28;20031;-67
2021/11/30 01:52:54;;;;;;;9.13;5.23;;;2.50;74.90;;;;;;4995351;28;20078;-67
2021/11/30 01:55:20;;;;;;;8.40;5.10;;;2.40;74.20;;;;;;4995390;28;20023;-67
2021/11/30 01:57:46;;;;;;;8.23;4.80;;;2.40;74.50;;;;;;4994141;28;20423;-67
2021/11/30 02:00:13;;;;;;;9.27;5.03;;;2.20;74.60;;;;;;4992083;28;20526;-67
2021/11/30 02:02:38;;;;;;;9.60;5.57;;;2.20;75.00;;;;;;4992436;28;20181;-67
2021/11/30 02:05:04;;;;;;;11.17;5.50;;;2.20;75.80;;;;;;4993517;28;20514;-67
2021/11/30 02:07:30;;;;;;;11.00;5.50;;;2.20;75.80;;;;;;4995011;28;20029;-67
2021/11/30 02:09:56;;;;;;;10.07;6.30;;;2.20;75.90;;;;;;4994611;28;20506;-67
2021/11/30 02:12:21;;;;;;;10.00;6.20;;;2.20;75.80;;;;;;4995004;28;20395;-67
2021/11/30 02:14:47;;;;;;;11.47;7.03;;;2.20;75.80;;;;;;4994653;28;20026;-67
2021/11/30 02:17:14;;;;;;;13.83;6.47;;;2.30;75.80;;;;;;4994721;28;20054;-67
2021/11/30 02:19:49;;;;;;;11.13;7.00;;;2.30;75.50;;;;;;4994511;28;20463;-67
2021/11/30 02:22:16;;;;;;;8.93;6.00;;;2.30;75.20;;;;;;4993537;28;20030;-67
2021/11/30 02:24:43;;;;;;;9.20;6.70;;;2.20;75.30;;;;;;4994540;28;20022;-67
2021/11/30 02:27:09;;;;;;;9.97;6.20;;;2.20;75.90;;;;;;4994635;28;20463;-67
2021/11/30 02:29:35;;;;;;;10.50;6.73;;;2.20;75.80;;;;;;4994039;28;20030;-67
2021/11/30 02:32:00;;;;;;;11.57;7.20;;;2.20;75.70;;;;;;4994450;28;20037;-67
2021/11/30 02:34:26;;;;;;;12.50;6.77;;;2.10;75.50;;;;;;4994419;28;20027;-68
2021/11/30 02:36:54;;;;;;;9.67;7.00;;;2.10;75.50;;;;;;4994196;28;20513;-68
2021/11/30 02:39:25;;;;;;;9.53;6.30;;;2.10;75.60;;;;;;4975951;28;20442;-68
2021/11/30 02:41:53;;;;;;;9.77;6.30;;;2.10;75.70;;;;;;4993810;28;20027;-68
2021/11/30 02:44:21;;;;;;;9.77;6.30;;;2.10;75.70;;;;;;4994069;28;20026;-68
2021/11/30 02:46:51;;;;;;;9.63;5.97;;;2.10;75.30;;;;;;4994277;28;20034;-68
2021/11/30 02:49:20;;;;;;;10.07;6.43;;;2.10;75.90;;;;;;4994392;28;20487;-68
2021/11/30 02:51:50;;;;;;;8.47;5.50;;;2.10;75.90;;;;;;4993847;28;20587;-68
2021/11/30 02:54:20;;;;;;;8.90;5.33;;;2.10;75.80;;;;;;4993994;28;20120;-68
2021/11/30 02:56:49;;;;;;;7.87;5.07;;;2.00;75.60;;;;;;4993655;28;20022;-68
2021/11/30 02:59:15;;;;;;;7.23;4.67;;;2.00;75.40;;;;;;4993694;28;20022;-69
2021/11/30 03:01:50;;;;;;;7.37;4.50;;;2.10;75.60;;;;;;4993689;28;20058;-68
2021/11/30 03:04:15;;;;;;;8.60;4.30;;;2.10;75.10;;;;;;4994319;28;20030;-68
2021/11/30 03:06:42;;;;;;;5.87;3.83;;;2.10;74.80;;;;;;4994022;28;20460;-68
2021/11/30 03:09:09;;;;;;;6.47;4.03;;;2.00;74.80;;;;;;4993972;28;20391;-68
2021/11/30 03:11:35;;;;;;;6.10;3.90;;;2.00;74.80;;;;;;4993856;28;20069;-68
2021/11/30 03:14:01;;;;;;;6.83;3.97;;;2.00;74.90;;;;;;4993866;28;20022;-68
2021/11/30 03:16:27;;;;;;;6.80;4.20;;;2.00;75.10;;;;;;4993892;28;20030;-69
2021/11/30 03:18:53;;;;;;;8.57;4.03;;;1.90;75.00;;;;;;4993806;28;20026;-69
2021/11/30 03:21:19;;;;;;;7.67;3.67;;;1.90;75.00;;;;;;4993590;28;20533;-68
2021/11/30 03:23:45;;;;;;;7.67;4.50;;;1.90;75.40;;;;;;4993792;28;20026;-68
2021/11/30 03:26:11;;;;;;;7.47;4.10;;;1.90;75.50;;;;;;4993506;28;20026;-68
2021/11/30 03:28:37;;;;;;;6.90;4.80;;;1.90;75.30;;;;;;4993159;28;20476;-68
2021/11/30 03:31:05;;;;;;;7.13;4.33;;;1.90;75.40;;;;;;4993351;28;20085;-68
2021/11/30 03:36:17;;;;;;;6.23;3.57;;;1.90;75.60;;;;;;4993831;28;20057;-68
2021/11/30 03:38:43;;;;;;;8.83;3.83;;;1.90;75.40;;;;;;4993353;28;20088;-68
2021/11/30 03:41:09;;;;;;;8.57;4.60;;;1.90;74.90;;;;;;4993459;28;20390;-68
2021/11/30 03:43:35;;;;;;;10.20;6.00;;;1.90;73.90;;;;;;4993419;28;20030;-68
2021/11/30 03:46:01;;;;;;;9.00;5.40;;;1.80;74.40;;;;;;4993474;28;20027;-68
2021/11/30 03:48:27;;;;;;;10.03;5.20;;;1.70;75.00;;;;;;4993456;28;20034;-68
2021/11/30 03:50:53;;;;;;;9.27;5.80;;;1.70;75.30;;;;;;4993422;28;20034;-68
2021/11/30 03:53:19;;;;;;;13.10;5.93;;;1.70;76.00;;;;;;4993655;28;20030;-69
2021/11/30 03:55:45;;;;;;;9.50;5.90;;;1.60;76.10;;;;;;4993427;28;20382;-68
2021/11/30 03:58:10;;;;;;;8.67;5.53;;;1.70;76.20;;;;;;4993870;28;20018;-68
2021/11/30 04:00:36;;;;;;;9.57;5.83;;;1.70;75.90;;;;;;4993041;28;20085;-68
2021/11/30 04:03:02;;;;;;;10.10;5.93;;;1.60;75.90;;;;;;4993375;28;20025;-68
2021/11/30 04:05:28;;;;;;;8.13;5.50;;;1.70;76.00;;;;;;4993413;28;20382;-68
2021/11/30 04:07:54;;;;;;;10.10;5.80;;;1.70;75.70;;;;;;4993563;28;20019;-68
2021/11/30 04:10:19;;;;;;;10.10;6.37;;;1.70;76.10;;;;;;4992902;28;20030;-68
2021/11/30 04:12:45;;;;;;;8.73;5.43;;;1.70;75.90;;;;;;4993555;28;20031;-68
2021/11/30 04:15:11;;;;;;;10.57;5.67;;;1.70;76.10;;;;;;4993437;28;20026;-68
2021/11/30 04:17:40;;;;;;;9.93;5.77;;;1.60;76.20;;;;;;4993526;28;20530;-68
2021/11/30 04:20:07;;;;;;;13.00;6.23;;;1.60;76.30;;;;;;4992995;28;20080;-68
2021/11/30 04:22:33;;;;;;;9.80;5.57;;;1.60;76.40;;;;;;4975789;28;20463;-68
2021/11/30 04:24:59;;;;;;;9.57;6.40;;;1.60;76.40;;;;;;4993475;28;20037;-68
2021/11/30 04:27:24;;;;;;;9.90;5.90;;;1.60;76.50;;;;;;4993355;28;20025;-68
2021/11/30 04:29:50;;;;;;;11.10;5.40;;;1.60;76.40;;;;;;4992861;28;20027;-68
2021/11/30 04:32:16;;;;;;;9.20;5.13;;;1.60;76.60;;;;;;4993020;28;20034;-68
2021/11/30 04:34:41;;;;;;;9.00;5.67;;;1.60;76.60;;;;;;4993060;28;20022;-68
2021/11/30 04:37:08;;;;;;;8.77;5.67;;;1.60;76.70;;;;;;4993007;28;20416;-68
2021/11/30 04:39:34;;;;;;;10.90;5.77;;;1.50;76.90;;;;;;4994524;28;20026;-68
2021/11/30 04:42:00;;;;;;;8.40;5.63;;;1.50;77.10;;;;;;4996462;28;20537;-68
2021/11/30 04:44:28;;;;;;;8.93;5.50;;;1.50;77.00;;;;;;4996489;28;20077;-68
2021/11/30 04:47:01;;;;;;;7.00;5.10;;;1.50;77.00;;;;;;4996544;28;20052;-68
2021/11/30 04:51:56;;;;;;;9.50;5.53;;;1.50;76.90;;;;;;4996151;28;20368;-68
2021/11/30 04:54:22;;;;;;;8.20;5.10;;;1.50;76.80;;;;;;4996533;28;20033;-68
2021/11/30 04:56:48;;;;;;;7.53;4.87;;;1.50;77.00;;;;;;4996424;28;20109;-68
2021/11/30 04:59:17;;;;;;;8.97;5.03;;;1.60;77.00;;;;;;4996511;28;20454;-68
2021/11/30 05:01:43;;;;;;;10.60;4.87;;;1.60;76.80;;;;;;4995774;28;20043;-68
2021/11/30 05:04:09;;;;;;;9.00;5.30;;;1.60;76.80;;;;;;4996246;28;20026;-68
2021/11/30 05:06:35;;;;;;;9.80;4.80;;;1.60;76.80;;;;;;4996472;28;20026;-68
2021/11/30 05:09:02;;;;;;;10.87;5.17;;;1.60;76.80;;;;;;4996209;28;20065;-68
2021/11/30 05:11:28;;;;;;;8.13;4.70;;;1.60;77.20;;;;;;4995972;28;20089;-68
2021/11/30 05:13:54;;;;;;;11.73;5.20;;;1.60;76.60;;;;;;4996245;28;20025;-68
2021/11/30 05:16:21;;;;;;;11.63;5.00;;;1.60;76.60;;;;;;4995748;28;20035;-68
2021/11/30 05:18:46;;;;;;;8.73;5.43;;;1.60;76.70;;;;;;4995978;28;20038;-68
2021/11/30 05:21:12;;;;;;;9.30;5.63;;;1.60;76.80;;;;;;4995882;28;20026;-68
2021/11/30 05:23:40;;;;;;;7.90;4.93;;;1.60;77.10;;;;;;4996105;28;20395;-68
2021/11/30 05:26:06;;;;;;;8.80;5.10;;;1.60;76.90;;;;;;4996014;28;20027;-68
2021/11/30 05:28:34;;;;;;;8.40;4.70;;;1.50;76.90;;;;;;4995639;28;20022;-68
2021/11/30 05:31:01;;;;;;;6.97;4.40;;;1.60;76.70;;;;;;4995238;28;20416;-68
2021/11/30 05:33:28;;;;;;;9.97;4.80;;;1.50;76.60;;;;;;4995742;28;20072;-68
2021/11/30 05:35:54;;;;;;;7.50;4.10;;;1.60;76.30;;;;;;4995404;28;20097;-69
2021/11/30 05:38:20;;;;;;;8.90;4.30;;;1.50;75.80;;;;;;4995440;28;20471;-68
2021/11/30 05:40:47;;;;;;;8.57;5.13;;;1.50;75.80;;;;;;4995688;28;20038;-68
2021/11/30 05:43:12;;;;;;;12.07;4.80;;;1.50;75.60;;;;;;4995487;28;20028;-68
2021/11/30 05:45:38;;;;;;;12.00;5.07;;;1.40;76.00;;;;;;4995518;28;20097;-68
2021/11/30 05:48:04;;;;;;;11.70;5.17;;;1.40;75.90;;;;;;4995472;28;20110;-68
2021/11/30 05:50:30;;;;;;;7.20;4.70;;;1.30;76.20;;;;;;4994522;28;20081;-68
2021/11/30 05:52:56;;;;;;;10.63;5.50;;;1.30;76.40;;;;;;4995447;28;20022;-68
2021/11/30 05:55:21;;;;;;;9.83;5.43;;;1.30;76.40;;;;;;4995147;28;20105;-68
2021/11/30 05:57:47;;;;;;;8.73;5.07;;;1.30;76.80;;;;;;4995230;28;20021;-68
2021/11/30 06:00:17;;;;;;;12.50;4.50;;;1.30;76.90;;;;;;4995078;28;20084;-68
2021/11/30 06:02:55;;;;;;;12.73;4.07;;;1.30;76.90;;;;;;4995557;28;20399;-68
2021/11/30 06:05:21;;;;;;;6.07;3.73;;;1.30;76.80;;;;;;4995129;28;20080;-68
2021/11/30 06:07:47;;;;;;;6.57;3.50;;;1.30;76.50;;;;;;4994862;28;20034;-68
2021/11/30 06:10:13;;;;;;;8.37;4.37;;;1.30;76.30;;;;;;4995080;28;20030;-68
2021/11/30 06:12:38;;;;;;;9.80;4.70;;;1.30;76.00;;;;;;4995066;28;20108;-68
2021/11/30 06:15:04;;;;;;;8.03;3.90;;;1.40;75.80;;;;;;4995044;28;20030;-68
2021/11/30 06:17:30;;;;;;;9.57;3.83;;;1.40;75.70;;;;;;4994590;28;20386;-68
2021/11/30 06:19:56;;;;;;;6.80;3.53;;;1.30;76.40;;;;;;4995023;28;20026;-68
2021/11/30 06:22:21;;;;;;;7.33;3.90;;;1.30;76.70;;;;;;4994778;28;20033;-68
2021/11/30 06:24:47;;;;;;;6.53;3.83;;;1.30;76.30;;;;;;4994507;28;20044;-68
2021/11/30 06:27:13;;;;;;;7.23;3.60;;;1.30;76.30;;;;;;4994699;28;20440;-68
2021/11/30 06:29:39;;;;;;;5.77;3.60;;;1.30;75.90;;;;;;4994457;28;20026;-68
2021/11/30 06:32:05;;;;;;;5.30;3.90;;;1.30;75.80;;;;;;4977278;28;20084;-68
2021/11/30 06:34:31;;;;;;;9.30;3.57;;;1.30;75.80;;;;;;4994564;28;20062;-68
2021/11/30 06:36:56;;;;;;;5.43;3.60;;;1.30;75.80;;;;;;4994532;28;20058;-68
2021/11/30 06:39:22;;;;;;;5.00;3.30;;;1.30;76.10;;;;;;4994606;28;20033;-68
2021/11/30 06:41:48;;;;;;;8.03;4.00;;;1.30;76.00;;;;;;4994584;28;20026;-68
2021/11/30 06:44:13;;;;;;;6.10;3.20;;;1.20;76.00;;;;;;4994391;28;20033;-68
2021/11/30 06:46:39;;;;;;;8.43;3.90;;;1.30;76.40;;;;;;4994218;28;20113;-68
2021/11/30 06:49:05;;;;;;;7.47;4.03;;;1.30;76.30;;;;;;4994180;28;20451;-68
2021/11/30 06:51:31;;;;;;;7.40;3.03;;;1.30;76.30;;;;;;4994106;28;20038;-68
2021/11/30 06:53:56;;;;;;;10.47;3.27;;;1.40;76.10;;;;;;4994129;28;20026;-69
2021/11/30 06:56:22;;;;;;;7.77;3.57;;;1.40;76.00;;;;;;4993869;28;20030;-68
2021/11/30 06:58:48;;;;;;;8.73;3.60;;;1.50;75.90;;;;;;4993965;28;20022;-68
2021/11/30 07:01:14;;;;;;;5.20;3.10;;;1.50;75.80;;;;;;4993940;28;20050;-68
2021/11/30 07:03:43;;;;;;;8.63;3.50;;;1.50;75.40;;;;;;4993432;28;20053;-68
2021/11/30 07:06:35;;;;;;;13.07;3.83;;;1.60;74.90;;;;;;4994128;28;20161;-68
2021/11/30 07:09:15;;;;;;;8.47;3.77;;;1.50;75.00;;;;;;4992653;28;20077;-68
2021/11/30 07:14:08;;;;;;;9.77;4.30;;;1.60;75.50;;;;;;4993474;28;20029;-68
2021/11/30 07:16:34;;;;;;;10.10;3.90;;;1.60;75.40;;;;;;4993601;28;20535;-68
2021/11/30 07:19:00;;;;;;;5.80;3.67;;;1.60;76.00;;;;;;4993823;28;20022;-68
2021/11/30 07:21:27;;;;;;;8.93;3.77;;;1.70;75.90;;;;;;4993388;28;20029;-68
2021/11/30 07:23:54;;;;;;;7.93;3.70;;;1.70;76.00;;;;;;4993536;28;20049;-67
2021/11/30 07:26:20;;;;;;;7.27;3.63;;;1.80;76.20;;;;;;4992840;28;20026;-68
2021/11/30 07:28:46;;;;;;;5.50;3.57;;;1.90;76.20;;;;;;4992394;28;20022;-68
2021/11/30 07:31:13;;;;;;;5.50;3.23;;;1.90;76.10;;;;;;4993250;28;20484;-68
2021/11/30 07:33:44;;;;;;;5.93;3.67;;;2.00;75.70;;;;;;4998058;28;20067;-68
2021/11/30 07:36:12;;;;;;;11.10;5.00;;;2.20;75.50;;;;;;5012817;28;20371;-67
2021/11/30 07:38:39;;;;;;;7.07;3.93;;;2.20;75.60;;;;;;5013162;28;20422;-68
2021/11/30 07:41:06;;;;;;;12.03;6.13;;;2.30;75.20;;;;;;5012932;28;20033;-68
2021/11/30 07:43:32;;;;;;;18.10;7.80;;;2.40;74.00;;;;;;4996670;28;20030;-68
2021/11/30 07:45:58;;;;;;;19.33;7.30;;;2.50;75.20;;;;;;4968421;28;20057;-68
2021/11/30 07:48:25;;;;;;;15.43;5.80;;;2.60;75.10;;;;;;5012433;28;20213;-67
2021/11/30 07:50:51;;;;;;;13.03;5.87;;;2.70;75.00;;;;;;5012395;28;20049;-67
2021/11/30 07:53:17;;;;;;;12.10;5.10;;;2.80;74.70;;;;;;5012881;28;20018;-68
2021/11/30 07:55:43;;;;;;;11.50;5.30;;;2.80;74.70;;;;;;5012511;28;20022;-68
2021/11/30 07:58:09;;;;;;;14.60;5.10;;;2.90;74.80;;;;;;5013002;28;20029;-68
2021/11/30 08:00:36;;;;;;;10.57;5.30;;;3.00;74.70;;;;;;5012120;28;20502;-67
2021/11/30 08:03:02;;;;;;;14.87;5.27;;;3.10;74.50;;;;;;5011362;28;20521;-68
2021/11/30 08:05:28;;;;;;;13.40;5.50;;;3.20;74.20;;;;;;5010193;28;20029;-67
2021/11/30 08:07:53;;;;;;;17.43;6.33;;;3.20;73.90;;;;;;5009441;28;20140;-68
2021/11/30 08:10:22;;;;;;;22.13;8.70;;;3.30;73.60;;;;;;5012317;28;20113;-67
2021/11/30 08:12:48;;;;;;;24.87;7.43;;;3.30;73.80;;;;;;5012502;28;20064;-67
2021/11/30 08:15:16;;;;;;;24.67;8.00;;;3.30;73.90;;;;;;5015939;28;20038;-67
2021/11/30 08:17:41;;;;;;;19.97;7.80;;;3.30;74.20;;;;;;5016580;28;20425;-67
2021/11/30 08:20:08;;;;;;;22.63;6.93;;;3.30;74.40;;;;;;5016463;28;20092;-68
2021/11/30 08:22:36;;;;;;;22.00;6.70;;;3.30;74.50;;;;;;5016555;28;20030;-68
2021/11/30 08:25:02;;;;;;;16.83;7.20;;;3.30;74.30;;;;;;5016462;28;20026;-67
2021/11/30 08:27:28;;;;;;;15.10;6.83;;;3.20;73.60;;;;;;4997960;28;20394;-68
2021/11/30 08:29:54;;;;;;;22.27;7.20;;;3.20;73.40;;;;;;5014689;28;20030;-68
2021/11/30 08:32:22;;;;;;;25.13;7.73;;;3.10;74.30;;;;;;5016429;28;20033;-68
2021/11/30 08:34:53;;;;;;;20.47;8.37;;;3.10;74.70;;;;;;5016622;28;20029;-68
2021/11/30 08:37:20;;;;;;;25.27;8.77;;;3.10;75.00;;;;;;5016388;28;20033;-68
2021/11/30 08:39:49;;;;;;;36.73;11.77;;;3.00;75.20;;;;;;5016415;28;20022;-67
2021/11/30 08:42:16;;;;;;;46.87;13.90;;;3.00;75.20;;;;;;5015752;28;20509;-68
2021/11/30 08:44:43;;;;;;;47.43;15.43;;;3.00;75.40;;;;;;5015651;28;20022;-67
2021/11/30 08:47:11;;;;;;;34.80;12.03;;;3.00;75.60;;;;;;5015825;28;20029;-67
2021/11/30 08:49:38;;;;;;;32.50;10.57;;;2.90;75.40;;;;;;5016195;28;20032;-68
2021/11/30 08:52:06;;;;;;;27.33;10.17;;;2.90;75.30;;;;;;5015863;28;20497;-67
2021/11/30 08:54:33;;;;;;;24.30;8.63;;;2.90;75.60;;;;;;5015872;28;20026;-68
2021/11/30 08:57:00;;;;;;;26.17;7.60;;;2.90;75.30;;;;;;5016540;28;20037;-68
2021/11/30 08:59:27;;;;;;;21.83;7.10;;;2.90;75.20;;;;;;5016343;28;20084;-67
2021/11/30 09:01:53;;;;;;;15.43;7.33;;;2.80;75.40;;;;;;5016126;28;20069;-68
2021/11/30 09:04:19;;;;;;;16.03;6.50;;;2.80;75.70;;;;;;5016282;28;20026;-68
2021/11/30 09:06:45;;;;;;;12.90;5.80;;;2.80;75.80;;;;;;5016095;28;20080;-67
2021/11/30 09:09:11;;;;;;;10.57;5.83;;;2.80;75.80;;;;;;5016280;28;20030;-67
2021/11/30 09:11:38;;;;;;;17.13;6.67;;;2.80;76.20;;;;;;5015841;28;20116;-67
2021/11/30 09:14:05;;;;;;;15.57;6.03;;;2.80;76.60;;;;;;5015778;28;20030;-67
2021/11/30 09:16:32;;;;;;;16.83;6.00;;;2.80;76.80;;;;;;5016004;28;20026;-68
2021/11/30 09:18:59;;;;;;;9.50;5.37;;;2.90;76.90;;;;;;5015972;28;20029;-69
2021/11/30 09:21:26;;;;;;;10.50;6.03;;;2.90;77.00;;;;;;5015764;28;20049;-68
2021/11/30 09:23:53;;;;;;;11.87;6.30;;;2.90;77.30;;;;;;5015637;28;20101;-68
2021/11/30 09:26:19;;;;;;;12.03;6.83;;;2.90;77.30;;;;;;5014320;28;20088;-68
2021/11/30 09:28:45;;;;;;;10.40;6.47;;;3.00;76.90;;;;;;5015711;28;20026;-68
2021/11/30 09:31:11;;;;;;;11.30;6.60;;;3.10;76.70;;;;;;5015531;28;20037;-68
2021/11/30 09:33:39;;;;;;;15.57;6.57;;;3.20;76.70;;;;;;5015861;28;20036;-67
2021/11/30 09:36:06;;;;;;;10.43;6.30;;;3.20;76.40;;;;;;5015510;28;20014;-67
2021/11/30 09:38:32;;;;;;;14.13;6.87;;;3.30;75.80;;;;;;5015088;28;20018;-68
2021/11/30 09:40:59;;;;;;;15.33;6.17;;;3.40;75.40;;;;;;5012513;28;20445;-68
2021/11/30 09:43:26;;;;;;;16.77;6.40;;;3.50;75.10;;;;;;5012643;28;20379;-68
2021/11/30 09:45:54;;;;;;;14.10;6.50;;;3.60;75.00;;;;;;5014648;28;20032;-67
2021/11/30 09:48:21;;;;;;;13.50;6.47;;;3.70;74.80;;;;;;5015507;28;20029;-68
2021/11/30 09:50:47;;;;;;;11.73;6.50;;;3.80;74.50;;;;;;5015158;28;20123;-66
2021/11/30 09:53:14;;;;;;;12.00;5.83;;;3.90;74.00;;;;;;5015444;28;20058;-68
2021/11/30 09:55:41;;;;;;;8.80;5.07;;;4.00;73.40;;;;;;5015146;28;20053;-68
2021/11/30 09:58:08;;;;;;;12.90;6.03;;;4.00;73.10;;;;;;5015127;28;20026;-67
2021/11/30 10:00:34;;;;;;;8.83;5.63;;;4.00;73.00;;;;;;5014635;28;20129;-67
2021/11/30 10:03:01;;;;;;;9.60;5.10;;;4.00;73.00;;;;;;5013824;28;20068;-68
2021/11/30 10:05:28;;;;;;;10.50;5.17;;;4.00;72.90;;;;;;5015207;28;20026;-68
2021/11/30 10:07:55;;;;;;;11.20;5.07;;;4.10;72.80;;;;;;5015011;28;20058;-68
2021/11/30 10:10:23;;;;;;;9.80;5.30;;;4.10;72.60;;;;;;5014781;28;20040;-67
2021/11/30 10:13:00;;;;;;;8.67;4.73;;;4.20;71.90;;;;;;5014794;28;20026;-68
2021/11/30 10:15:32;;;;;;;10.83;5.33;;;4.40;71.00;;;;;;5014765;28;20467;-68
2021/11/30 10:18:17;;;;;;;8.00;4.70;;;4.50;71.20;;;;;;5014724;28;20049;-67
2021/11/30 10:20:44;;;;;;;8.17;4.63;;;4.60;70.50;;;;;;5014842;28;20120;-68
2021/11/30 10:23:11;;;;;;;8.23;4.47;;;4.80;69.70;;;;;;5014815;28;20364;-67
2021/11/30 10:25:38;;;;;;;6.60;4.10;;;4.90;69.40;;;;;;5014802;28;20029;-68
2021/11/30 10:28:11;;;;;;;7.37;3.90;;;5.00;68.90;;;;;;5014477;28;20449;-68
2021/11/30 10:30:40;;;;;;;12.47;4.67;;;5.10;68.20;;;;;;5014419;28;20499;-68
2021/11/30 10:33:15;;;;;;;6.07;3.30;;;5.20;67.70;;;;;;5014492;28;20409;-68
2021/11/30 10:35:41;;;;;;;9.70;3.97;;;5.30;67.80;;;;;;5014447;28;20044;-68
2021/11/30 10:38:07;;;;;;;8.90;4.20;;;5.30;67.60;;;;;;5013849;28;20479;-67
2021/11/30 10:40:36;;;;;;;6.33;3.50;;;5.40;67.10;;;;;;5014435;28;20073;-68
2021/11/30 10:43:05;;;;;;;9.17;3.60;;;5.60;66.50;;;;;;5014229;28;20364;-68
2021/11/30 10:45:49;;;;;;;6.03;3.60;;;5.70;65.90;;;;;;5014172;28;20030;-67
2021/11/30 10:48:16;;;;;;;11.13;4.13;;;5.80;65.60;;;;;;5013812;28;20018;-67
2021/11/30 10:50:45;;;;;;;6.10;4.00;;;6.00;65.30;;;;;;5013866;28;20413;-67
2021/11/30 10:53:28;;;;;;;7.07;3.90;;;6.10;64.80;;;;;;5013832;28;20026;-68
2021/11/30 10:56:07;;;;;;;5.93;4.00;;;6.20;64.30;;;;;;5014159;28;20029;-67
2021/11/30 10:58:39;;;;;;;6.13;3.60;;;6.40;63.70;;;;;;5013731;28;20032;-67
2021/11/30 11:01:15;;;;;;;5.75;3.58;;;6.50;63.20;;;;;;5013865;28;20042;-67
2021/11/30 11:03:40;;;;;;;8.50;4.23;;;6.60;62.80;;;;;;5013507;28;20029;-67
2021/11/30 11:09:04;;;;;;;8.00;4.67;;;6.70;62.70;;;;;;5012155;28;20633;-68
2021/11/30 11:11:36;;;;;;;7.60;4.93;;;6.80;62.80;;;;;;5012740;28;20033;-68
2021/11/30 11:14:05;;;;;;;18.60;6.57;;;6.90;61.90;;;;;;5005856;28;20033;-67
2021/11/30 11:16:30;;;;;;;11.37;5.67;;;7.00;61.70;;;;;;4993632;28;20451;-68
2021/11/30 11:18:59;;;;;;;12.70;6.67;;;7.00;61.40;;;;;;4993347;28;20064;-67
2021/11/30 11:21:30;;;;;;;13.40;6.90;;;7.10;61.90;;;;;;4993306;28;20034;-68
2021/11/30 11:24:25;;;;;;;9.97;6.13;;;7.10;62.60;;;;;;5004164;28;20029;-79
2021/11/30 11:26:56;;;;;;;12.73;6.10;;;7.20;62.40;;;;;;5013059;28;20056;-69
2021/11/30 11:29:28;;;;;;;12.80;6.77;;;7.30;62.30;;;;;;5012219;28;20474;-70
2021/11/30 11:31:57;;;;;;;13.25;7.28;;;7.40;62.40;;;;;;5012820;28;20490;-69
2021/11/30 11:34:26;;;;;;;9.67;5.50;;;7.50;62.10;;;;;;5013112;28;20018;-68
2021/11/30 11:36:54;;;;;;;12.27;6.27;;;7.50;62.10;;;;;;5013168;28;20025;-70
2021/11/30 11:39:21;;;;;;;12.23;7.00;;;7.60;61.90;;;;;;5010738;28;20370;-69
2021/11/30 11:41:50;;;;;;;12.03;5.87;;;7.60;61.50;;;;;;5012571;28;20382;-69
2021/11/30 11:44:17;;;;;;;18.37;5.20;;;7.60;61.40;;;;;;5012584;28;20486;-69
2021/11/30 11:46:44;;;;;;;8.87;4.60;;;7.50;61.50;;;;;;5013090;28;20030;-69
2021/11/30 11:49:12;;;;;;;14.33;5.03;;;7.50;62.00;;;;;;5016514;28;20053;-70
2021/11/30 11:51:46;;;;;;;11.20;5.10;;;7.40;62.20;;;;;;5019580;28;20437;-69
2021/11/30 11:54:29;;;;;;;10.73;5.10;;;7.40;62.60;;;;;;5019409;28;20057;-69
2021/11/30 11:57:03;;;;;;;9.07;4.73;;;7.50;62.80;;;;;;5019603;28;20080;-70
2021/11/30 11:59:40;;;;;;;9.83;5.13;;;7.50;62.90;;;;;;5019876;28;20474;-69
2021/11/30 12:02:21;;;;;;;7.60;4.30;;;7.50;63.10;;;;;;5002036;28;20569;-70
2021/11/30 12:04:55;;;;;;;10.30;5.07;;;7.50;63.10;;;;;;5019535;28;20097;-69
2021/11/30 12:07:24;;;;;;;7.33;4.77;;;7.50;63.40;;;;;;5019583;28;20025;-70
2021/11/30 12:10:13;;;;;;;8.23;3.97;;;7.60;63.50;;;;;;5019294;28;20491;-69
2021/11/30 12:12:39;;;;;;;12.27;5.00;;;7.70;63.40;;;;;;5019544;28;20494;-70
2021/11/30 12:15:05;;;;;;;6.87;4.60;;;7.70;63.20;;;;;;5019332;28;20052;-69
2021/11/30 12:17:31;;;;;;;8.30;4.43;;;7.80;62.90;;;;;;5019207;28;20415;-70
2021/11/30 12:19:57;;;;;;;13.70;5.03;;;7.80;62.60;;;;;;5019405;28;20057;-70
2021/11/30 12:22:41;;;;;;;7.43;4.63;;;7.80;62.40;;;;;;5019283;28;20101;-70
2021/11/30 12:25:26;;;;;;;9.83;4.67;;;7.90;62.60;;;;;;5016836;28;20030;-69
2021/11/30 12:27:53;;;;;;;6.77;4.57;;;8.00;63.40;;;;;;5016653;28;20109;-70
2021/11/30 12:30:47;;;;;;;6.33;4.00;;;8.00;62.60;;;;;;5017414;28;20034;-70
2021/11/30 12:33:28;;;;;;;8.80;4.23;;;8.00;61.90;;;;;;4997661;28;20120;-70
2021/11/30 12:36:07;;;;;;;6.13;4.10;;;8.00;61.40;;;;;;5019169;28;20025;-70
2021/11/30 12:38:55;;;;;;;8.23;3.80;;;8.00;61.60;;;;;;5018588;28;20355;-70
2021/11/30 12:41:56;;;;;;;8.60;3.63;;;8.00;61.80;;;;;;5018802;28;20478;-70
2021/11/30 12:44:24;;;;;;;13.83;3.60;;;8.10;61.70;;;;;;4985651;28;20045;-70
2021/11/30 12:46:57;;;;;;;5.17;3.20;;;8.10;61.50;;;;;;5018646;28;20394;-70
2021/11/30 12:49:28;;;;;;;4.43;2.80;;;8.10;60.70;;;;;;5018970;28;20026;-70
2021/11/30 12:52:06;;;;;;;5.03;2.80;;;8.10;60.60;;;;;;5018830;28;20034;-69
2021/11/30 12:54:35;;;;;;;4.90;2.93;;;8.10;60.20;;;;;;5001161;28;20136;-71
2021/11/30 12:57:02;;;;;;;8.60;3.40;;;8.10;60.20;;;;;;5018885;28;20033;-70
2021/11/30 12:59:37;;;;;;;7.63;3.07;;;8.00;60.50;;;;;;5018003;28;20510;-70
2021/11/30 13:02:19;;;;;;;6.00;3.53;;;8.00;60.60;;;;;;5013316;28;20117;-70
2021/11/30 13:04:45;;;;;;;5.10;3.15;;;8.00;60.70;;;;;;5013759;28;20048;-70
2021/11/30 13:07:13;;;;;;;4.93;2.80;;;8.00;58.90;;;;;;5014436;28;20388;-70
2021/11/30 13:10:08;;;;;;;7.93;3.23;;;8.00;58.70;;;;;;5015519;28;20029;-69